sensor_id;sensor_type;location;lat;lon;timestamp;pressure;altitude;pressure_sealevel;temperature;humidity
79527;BME280;68974;47.754;-3.364;2023-04-01T00:00:18;101057.69;;;11.14;76.29
79527;BME280;68974;47.754;-3.364;2023-04-01T00:02:44;101056.31;;;11.16;77.16
79527;BME280;68974;47.754;-3.364;2023-04-01T00:05:10;101067.56;;;11.20;76.88
79527;BME280;68974;47.754;-3.364;2023-04-01T00:07:37;101061.25;;;11.14;77.99
79527;BME280;68974;47.754;-3.364;2023-04-01T00:10:05;101067.03;;;10.98;77.95
79527;BME280;68974;47.754;-3.364;2023-04-01T00:12:30;101065.13;;;10.98;77.90
79527;BME280;68974;47.754;-3.364;2023-04-01T00:14:56;101065.66;;;10.95;77.95
79527;BME280;68974;47.754;-3.364;2023-04-01T00:17:21;101060.16;;;10.95;77.96
79527;BME280;68974;47.754;-3.364;2023-04-01T00:19:47;101061.28;;;11.04;77.71
79527;BME280;68974;47.754;-3.364;2023-04-01T00:22:13;101065.66;;;11.10;77.83
79527;BME280;68974;47.754;-3.364;2023-04-01T00:24:39;101065.13;;;11.13;77.94
79527;BME280;68974;47.754;-3.364;2023-04-01T00:27:05;101067.28;;;11.26;78.51
79527;BME280;68974;47.754;-3.364;2023-04-01T00:29:30;101071.38;;;11.29;78.05
79527;BME280;68974;47.754;-3.364;2023-04-01T00:31:57;101068.38;;;11.30;78.02
79527;BME280;68974;47.754;-3.364;2023-04-01T00:34:23;101066.19;;;11.33;77.09
79527;BME280;68974;47.754;-3.364;2023-04-01T00:36:50;101051.88;;;11.30;76.78
79527;BME280;68974;47.754;-3.364;2023-04-01T00:39:16;101062.34;;;11.23;76.65
79527;BME280;68974;47.754;-3.364;2023-04-01T00:41:42;101057.38;;;11.20;77.68
79527;BME280;68974;47.754;-3.364;2023-04-01T00:44:25;101067.28;;;11.26;77.58
79527;BME280;68974;47.754;-3.364;2023-04-01T00:46:51;101067.84;;;11.23;76.66
79527;BME280;68974;47.754;-3.364;2023-04-01T00:49:19;101078.88;;;11.13;76.12
79527;BME280;68974;47.754;-3.364;2023-04-01T00:51:45;101067.56;;;11.00;76.47
79527;BME280;68974;47.754;-3.364;2023-04-01T00:54:13;101063.75;;;11.01;75.35
79527;BME280;68974;47.754;-3.364;2023-04-01T00:56:48;101056.06;;;10.88;75.80
79527;BME280;68974;47.754;-3.364;2023-04-01T00:59:19;101068.97;;;10.87;75.82
79527;BME280;68974;47.754;-3.364;2023-04-01T01:01:46;101074.72;;;10.85;75.82
79527;BME280;68974;47.754;-3.364;2023-04-01T01:04:41;101077.78;;;10.89;75.48
79527;BME280;68974;47.754;-3.364;2023-04-01T01:07:21;101071.16;;;10.85;75.68
79527;BME280;68974;47.754;-3.364;2023-04-01T01:12:40;101069.22;;;10.75;76.10
79527;BME280;68974;47.754;-3.364;2023-04-01T01:15:30;101073.38;;;10.73;76.21
79527;BME280;68974;47.754;-3.364;2023-04-01T01:18:16;101071.19;;;10.65;76.09
79527;BME280;68974;47.754;-3.364;2023-04-01T01:26:36;101067.28;;;10.56;77.05
79527;BME280;68974;47.754;-3.364;2023-04-01T01:37:42;101053.28;;;10.52;77.42
79527;BME280;68974;47.754;-3.364;2023-04-01T01:40:11;101060.16;;;10.50;77.82
79527;BME280;68974;47.754;-3.364;2023-04-01T01:42:39;101066.47;;;10.45;77.75
79527;BME280;68974;47.754;-3.364;2023-04-01T01:45:07;101059.88;;;10.46;78.16
79527;BME280;68974;47.754;-3.364;2023-04-01T01:47:35;101062.91;;;10.50;78.08
79527;BME280;68974;47.754;-3.364;2023-04-01T01:50:01;101056.88;;;10.53;78.21
79527;BME280;68974;47.754;-3.364;2023-04-01T01:52:28;101048.09;;;10.46;78.62
79527;BME280;68974;47.754;-3.364;2023-04-01T01:54:56;101051.34;;;10.42;78.57
79527;BME280;68974;47.754;-3.364;2023-04-01T01:57:30;101043.13;;;10.48;78.66
79527;BME280;68974;47.754;-3.364;2023-04-01T02:00:02;101057.41;;;10.50;78.86
79527;BME280;68974;47.754;-3.364;2023-04-01T02:02:31;101049.72;;;10.62;78.60
79527;BME280;68974;47.754;-3.364;2023-04-01T02:04:57;101053.03;;;10.64;78.85
79527;BME280;68974;47.754;-3.364;2023-04-01T02:07:28;101049.47;;;10.58;79.01
79527;BME280;68974;47.754;-3.364;2023-04-01T02:09:56;101054.13;;;10.63;78.99
79527;BME280;68974;47.754;-3.364;2023-04-01T02:12:22;101060.72;;;10.62;78.67
79527;BME280;68974;47.754;-3.364;2023-04-01T02:14:52;101054.69;;;10.65;78.73
79527;BME280;68974;47.754;-3.364;2023-04-01T02:17:30;101059.06;;;10.71;77.39
79527;BME280;68974;47.754;-3.364;2023-04-01T02:20:03;101056.03;;;10.62;77.27
79527;BME280;68974;47.754;-3.364;2023-04-01T02:22:57;101057.44;;;10.60;76.47
79527;BME280;68974;47.754;-3.364;2023-04-01T02:25:33;101050.28;;;10.69;75.93
79527;BME280;68974;47.754;-3.364;2023-04-01T02:28:01;101057.44;;;10.60;76.08
79527;BME280;68974;47.754;-3.364;2023-04-01T02:30:29;101062.38;;;10.58;74.83
79527;BME280;68974;47.754;-3.364;2023-04-01T02:32:57;101058.53;;;10.54;75.38
79527;BME280;68974;47.754;-3.364;2023-04-01T02:35:24;101065.38;;;10.51;75.18
79527;BME280;68974;47.754;-3.364;2023-04-01T02:37:52;101061.28;;;10.59;74.43
79527;BME280;68974;47.754;-3.364;2023-04-01T02:40:19;101064.84;;;10.49;74.85
79527;BME280;68974;47.754;-3.364;2023-04-01T02:42:45;101069.22;;;10.50;74.26
79527;BME280;68974;47.754;-3.364;2023-04-01T02:45:11;101070.03;;;10.51;74.30
79527;BME280;68974;47.754;-3.364;2023-04-01T02:47:37;101073.88;;;10.39;74.87
79527;BME280;68974;47.754;-3.364;2023-04-01T02:50:02;101076.06;;;10.37;74.82
79527;BME280;68974;47.754;-3.364;2023-04-01T02:52:29;101066.16;;;10.36;74.85
79527;BME280;68974;47.754;-3.364;2023-04-01T02:54:55;101074.44;;;10.57;74.25
79527;BME280;68974;47.754;-3.364;2023-04-01T02:57:21;101065.66;;;10.45;74.66
79527;BME280;68974;47.754;-3.364;2023-04-01T02:59:47;101072.50;;;10.52;74.92
79527;BME280;68974;47.754;-3.364;2023-04-01T03:02:13;101072.25;;;10.59;75.10
79527;BME280;68974;47.754;-3.364;2023-04-01T03:04:38;101073.91;;;10.55;74.95
79527;BME280;68974;47.754;-3.364;2023-04-01T03:07:04;101077.72;;;10.43;75.23
79527;BME280;68974;47.754;-3.364;2023-04-01T03:09:29;101076.06;;;10.37;75.86
79527;BME280;68974;47.754;-3.364;2023-04-01T03:11:55;101076.06;;;10.37;75.92
79527;BME280;68974;47.754;-3.364;2023-04-01T03:14:20;101072.78;;;10.35;75.88
79527;BME280;68974;47.754;-3.364;2023-04-01T03:16:46;101077.69;;;10.28;76.27
79527;BME280;68974;47.754;-3.364;2023-04-01T03:19:11;101068.63;;;10.33;76.18
79527;BME280;68974;47.754;-3.364;2023-04-01T03:21:37;101067.28;;;10.40;75.64
79527;BME280;68974;47.754;-3.364;2023-04-01T03:24:02;101070.06;;;10.46;75.74
79527;BME280;68974;47.754;-3.364;2023-04-01T03:26:28;101062.91;;;10.45;76.24
79527;BME280;68974;47.754;-3.364;2023-04-01T03:28:53;101066.75;;;10.49;76.99
79527;BME280;68974;47.754;-3.364;2023-04-01T03:31:19;101062.34;;;10.48;77.71
79527;BME280;68974;47.754;-3.364;2023-04-01T03:33:45;101061.78;;;10.56;78.01
79527;BME280;68974;47.754;-3.364;2023-04-01T03:36:10;101057.44;;;10.60;78.05
79527;BME280;68974;47.754;-3.364;2023-04-01T03:38:41;101054.38;;;10.61;78.21
79527;BME280;68974;47.754;-3.364;2023-04-01T03:41:06;101054.13;;;10.58;78.44
79527;BME280;68974;47.754;-3.364;2023-04-01T03:43:32;101041.47;;;10.57;77.24
79527;BME280;68974;47.754;-3.364;2023-04-01T03:45:58;101056.88;;;10.53;77.48
79527;BME280;68974;47.754;-3.364;2023-04-01T03:48:24;101059.34;;;10.54;76.90
79527;BME280;68974;47.754;-3.364;2023-04-01T03:50:50;101061.28;;;10.59;77.28
79527;BME280;68974;47.754;-3.364;2023-04-01T03:53:16;101065.69;;;10.65;76.47
79527;BME280;68974;47.754;-3.364;2023-04-01T03:55:41;101064.03;;;10.64;76.26
79527;BME280;68974;47.754;-3.364;2023-04-01T03:58:07;101059.06;;;10.56;76.21
79527;BME280;68974;47.754;-3.364;2023-04-01T04:00:33;101064.53;;;10.51;76.03
79527;BME280;68974;47.754;-3.364;2023-04-01T04:02:59;101067.84;;;10.53;75.86
79527;BME280;68974;47.754;-3.364;2023-04-01T04:05:25;101069.22;;;10.50;75.64
79527;BME280;68974;47.754;-3.364;2023-04-01T04:07:51;101067.84;;;10.42;75.65
79527;BME280;68974;47.754;-3.364;2023-04-01T04:10:16;101075.25;;;10.42;75.61
79527;BME280;68974;47.754;-3.364;2023-04-01T04:12:42;101062.88;;;10.29;75.71
79527;BME280;68974;47.754;-3.364;2023-04-01T04:15:08;101062.28;;;10.22;75.31
79527;BME280;68974;47.754;-3.364;2023-04-01T04:17:33;101056.78;;;10.17;75.21
79527;BME280;68974;47.754;-3.364;2023-04-01T04:19:59;101061.72;;;10.15;74.85
79527;BME280;68974;47.754;-3.364;2023-04-01T04:22:24;101061.19;;;10.23;74.71
79527;BME280;68974;47.754;-3.364;2023-04-01T04:24:49;101068.88;;;10.16;75.09
79527;BME280;68974;47.754;-3.364;2023-04-01T04:27:15;101074.03;;;10.13;74.93
79527;BME280;68974;47.754;-3.364;2023-04-01T04:29:40;101077.56;;;10.03;75.73
79527;BME280;68974;47.754;-3.364;2023-04-01T04:32:06;101080.63;;;10.12;75.78
79527;BME280;68974;47.754;-3.364;2023-04-01T04:34:32;101069.94;;;10.10;75.74
79527;BME280;68974;47.754;-3.364;2023-04-01T04:36:57;101072.75;;;10.20;75.48
79527;BME280;68974;47.754;-3.364;2023-04-01T04:39:23;101073.03;;;10.29;75.61
79527;BME280;68974;47.754;-3.364;2023-04-01T04:41:48;101059.28;;;10.29;76.06
79527;BME280;68974;47.754;-3.364;2023-04-01T04:44:13;101045.31;;;10.30;75.92
79527;BME280;68974;47.754;-3.364;2023-04-01T04:46:39;101054.38;;;10.31;76.32
79527;BME280;68974;47.754;-3.364;2023-04-01T04:49:05;101057.38;;;10.29;76.34
79527;BME280;68974;47.754;-3.364;2023-04-01T04:51:31;101056.28;;;10.30;76.43
79527;BME280;68974;47.754;-3.364;2023-04-01T04:53:59;101059.84;;;10.26;76.57
79527;BME280;68974;47.754;-3.364;2023-04-01T04:56:25;101056.25;;;10.20;77.29
79527;BME280;68974;47.754;-3.364;2023-04-01T04:58:51;101068.06;;;10.16;77.66
79527;BME280;68974;47.754;-3.364;2023-04-01T05:01:17;101073.28;;;10.22;77.49
79527;BME280;68974;47.754;-3.364;2023-04-01T05:03:43;101073.78;;;10.14;77.87
79527;BME280;68974;47.754;-3.364;2023-04-01T05:06:11;101078.16;;;10.10;77.77
79527;BME280;68974;47.754;-3.364;2023-04-01T05:08:38;101082.00;;;10.14;77.90
79527;BME280;68974;47.754;-3.364;2023-04-01T05:11:07;101075.13;;;10.02;78.29
79527;BME280;68974;47.754;-3.364;2023-04-01T05:13:35;101073.16;;;9.92;78.46
79527;BME280;68974;47.754;-3.364;2023-04-01T05:16:00;101062.50;;;10.00;78.19
79527;BME280;68974;47.754;-3.364;2023-04-01T05:18:25;101072.06;;;9.98;77.97
79527;BME280;68974;47.754;-3.364;2023-04-01T05:20:53;101069.66;;;10.07;77.54
79527;BME280;68974;47.754;-3.364;2023-04-01T05:23:20;101071.56;;;10.01;77.47
79527;BME280;68974;47.754;-3.364;2023-04-01T05:25:46;101074.25;;;9.91;78.10
79527;BME280;68974;47.754;-3.364;2023-04-01T05:28:12;101078.09;;;9.95;78.33
79527;BME280;68974;47.754;-3.364;2023-04-01T05:30:40;101074.78;;;9.88;78.08
79527;BME280;68974;47.754;-3.364;2023-04-01T05:33:06;101076.69;;;9.87;77.73
79527;BME280;68974;47.754;-3.364;2023-04-01T05:35:31;101083.56;;;9.85;78.54
79527;BME280;68974;47.754;-3.364;2023-04-01T05:37:56;101077.47;;;9.78;78.44
79527;BME280;68974;47.754;-3.364;2023-04-01T05:40:22;101072.53;;;9.75;78.91
79527;BME280;68974;47.754;-3.364;2023-04-01T05:42:47;101077.97;;;9.65;79.21
79527;BME280;68974;47.754;-3.364;2023-04-01T05:45:13;101068.41;;;9.72;79.06
79527;BME280;68974;47.754;-3.364;2023-04-01T05:47:40;101082.44;;;9.81;78.16
79527;BME280;68974;47.754;-3.364;2023-04-01T05:50:08;101078.59;;;9.77;77.95
79527;BME280;68974;47.754;-3.364;2023-04-01T05:52:33;101075.31;;;9.80;78.10
79527;BME280;68974;47.754;-3.364;2023-04-01T05:54:59;101071.69;;;9.74;77.99
79527;BME280;68974;47.754;-3.364;2023-04-01T05:57:25;101070.88;;;9.74;77.40
79527;BME280;68974;47.754;-3.364;2023-04-01T05:59:51;101073.63;;;9.74;77.84
79527;BME280;68974;47.754;-3.364;2023-04-01T06:02:17;101079.41;;;9.82;77.94
79527;BME280;68974;47.754;-3.364;2023-04-01T06:04:43;101075.56;;;9.78;78.24
79527;BME280;68974;47.754;-3.364;2023-04-01T06:07:13;101082.50;;;9.91;77.06
79527;BME280;68974;47.754;-3.364;2023-04-01T06:09:39;101082.72;;;9.84;77.22
79527;BME280;68974;47.754;-3.364;2023-04-01T06:38:01;101070.03;;;10.61;73.33
79527;BME280;68974;47.754;-3.364;2023-04-01T06:45:57;101086.00;;;10.64;73.28
79527;BME280;68974;47.754;-3.364;2023-04-01T06:48:54;101087.09;;;10.58;73.34
79527;BME280;68974;47.754;-3.364;2023-04-01T06:51:51;101087.66;;;10.65;77.09
79527;BME280;68974;47.754;-3.364;2023-04-01T06:54:49;101083.53;;;10.62;72.95
79527;BME280;68974;47.754;-3.364;2023-04-01T06:59:51;101089.25;;;10.35;73.71
79527;BME280;68974;47.754;-3.364;2023-04-01T07:02:39;101087.09;;;10.68;72.40
79527;BME280;68974;47.754;-3.364;2023-04-01T07:05:07;101083.25;;;10.69;73.02
79527;BME280;68974;47.754;-3.364;2023-04-01T07:07:49;101088.75;;;10.79;72.70
79527;BME280;68974;47.754;-3.364;2023-04-01T07:10:41;101092.59;;;10.88;72.41
79527;BME280;68974;47.754;-3.364;2023-04-01T07:13:15;101086.81;;;11.15;71.54
79527;BME280;68974;47.754;-3.364;2023-04-01T07:15:51;101083.19;;;11.50;70.08
79527;BME280;68974;47.754;-3.364;2023-04-01T07:18:34;101086.41;;;11.92;68.96
79527;BME280;68974;47.754;-3.364;2023-04-01T07:21:02;101069.75;;;12.12;67.66
79527;BME280;68974;47.754;-3.364;2023-04-01T07:23:40;101073.50;;;12.32;67.76
79527;BME280;68974;47.754;-3.364;2023-04-01T07:26:17;101088.28;;;12.51;67.27
79527;BME280;68974;47.754;-3.364;2023-04-01T07:28:43;101087.31;;;12.27;67.55
79527;BME280;68974;47.754;-3.364;2023-04-01T07:34:09;101092.47;;;11.79;69.41
79527;BME280;68974;47.754;-3.364;2023-04-01T07:50:28;101101.94;;;10.77;74.25
79527;BME280;68974;47.754;-3.364;2023-04-01T08:01:27;101097.50;;;10.51;75.34
79527;BME280;68974;47.754;-3.364;2023-04-01T08:09:32;101113.44;;;10.43;73.78
79527;BME280;68974;47.754;-3.364;2023-04-01T08:14:52;101112.03;;;10.46;74.17
79527;BME280;68974;47.754;-3.364;2023-04-01T08:20:33;101121.16;;;10.62;74.67
79527;BME280;68974;47.754;-3.364;2023-04-01T08:23:11;101120.91;;;10.78;74.35
79527;BME280;68974;47.754;-3.364;2023-04-01T08:25:43;101120.63;;;10.85;72.79
79527;BME280;68974;47.754;-3.364;2023-04-01T08:28:17;101112.38;;;11.10;72.27
79527;BME280;68974;47.754;-3.364;2023-04-01T08:30:52;101111.03;;;11.08;71.68
79527;BME280;68974;47.754;-3.364;2023-04-01T08:33:24;101112.94;;;11.33;71.50
79527;BME280;68974;47.754;-3.364;2023-04-01T08:35:56;101109.34;;;11.37;72.24
79527;BME280;68974;47.754;-3.364;2023-04-01T08:38:32;101116.75;;;11.47;72.88
79527;BME280;68974;47.754;-3.364;2023-04-01T08:41:09;101122.50;;;11.65;72.05
79527;BME280;68974;47.754;-3.364;2023-04-01T08:43:54;101121.09;;;11.78;71.33
79527;BME280;68974;47.754;-3.364;2023-04-01T08:52:31;101134.06;;;11.78;71.25
79527;BME280;68974;47.754;-3.364;2023-04-01T09:14:35;101150.53;;;10.61;73.16
79527;BME280;68974;47.754;-3.364;2023-04-01T09:20:24;101161.47;;;10.46;73.66
79527;BME280;68974;47.754;-3.364;2023-04-01T09:28:10;101153.03;;;10.63;73.09
79527;BME280;68974;47.754;-3.364;2023-04-01T09:33:42;101159.09;;;10.70;71.15
79527;BME280;68974;47.754;-3.364;2023-04-01T09:36:45;101157.72;;;10.77;72.40
79527;BME280;68974;47.754;-3.364;2023-04-01T09:39:38;101161.28;;;10.73;71.40
79527;BME280;68974;47.754;-3.364;2023-04-01T09:42:29;101153.91;;;11.04;70.46
79527;BME280;68974;47.754;-3.364;2023-04-01T09:45:04;101158.59;;;11.13;70.76
79527;BME280;68974;47.754;-3.364;2023-04-01T10:15:33;101178.38;;;11.81;66.90
79527;BME280;68974;47.754;-3.364;2023-04-01T10:45:32;101181.03;;;13.15;58.29
79527;BME280;68974;47.754;-3.364;2023-04-01T11:01:27;101179.72;;;17.93;45.31
79527;BME280;68974;47.754;-3.364;2023-04-01T11:24:55;101189.09;;;16.44;45.13
79527;BME280;68974;47.754;-3.364;2023-04-01T11:33:06;101211.91;;;14.32;50.98
79527;BME280;68974;47.754;-3.364;2023-04-01T11:46:10;101206.22;;;16.33;50.68
79527;BME280;68974;47.754;-3.364;2023-04-01T12:10:46;101190.53;;;17.05;44.96
79527;BME280;68974;47.754;-3.364;2023-04-01T12:16:59;101217.69;;;15.85;49.25
79527;BME280;68974;47.754;-3.364;2023-04-01T12:24:49;101238.22;;;13.43;62.32
79527;BME280;68974;47.754;-3.364;2023-04-01T12:27:31;101239.66;;;12.86;66.63
79527;BME280;68974;47.754;-3.364;2023-04-01T12:32:45;101237.63;;;12.48;66.34
79527;BME280;68974;47.754;-3.364;2023-04-01T12:35:39;101238.78;;;12.32;66.98
79527;BME280;68974;47.754;-3.364;2023-04-01T12:41:07;101234.78;;;12.68;66.07
79527;BME280;68974;47.754;-3.364;2023-04-01T12:57:28;101220.53;;;18.54;47.60
79527;BME280;68974;47.754;-3.364;2023-04-01T13:08:30;101201.50;;;19.47;44.00
79527;BME280;68974;47.754;-3.364;2023-04-01T13:11:24;101210.13;;;20.64;41.20
79527;BME280;68974;47.754;-3.364;2023-04-01T13:23:04;101200.53;;;20.07;37.89
79527;BME280;68974;47.754;-3.364;2023-04-01T13:28:18;101211.56;;;21.00;36.92
79527;BME280;68974;47.754;-3.364;2023-04-01T13:43:50;101210.28;;;19.75;37.42
79527;BME280;68974;47.754;-3.364;2023-04-01T14:00:45;101211.63;;;19.77;40.06
79527;BME280;68974;47.754;-3.364;2023-04-01T14:06:29;101215.81;;;22.37;32.96
79527;BME280;68974;47.754;-3.364;2023-04-01T14:14:33;101223.91;;;18.90;34.99
79527;BME280;68974;47.754;-3.364;2023-04-01T14:22:46;101233.75;;;19.65;34.70
79527;BME280;68974;47.754;-3.364;2023-04-01T14:28:14;101216.69;;;19.75;32.39
79527;BME280;68974;47.754;-3.364;2023-04-01T14:33:38;101231.44;;;18.90;33.91
79527;BME280;68974;47.754;-3.364;2023-04-01T14:50:24;101256.00;;;15.65;44.85
79527;BME280;68974;47.754;-3.364;2023-04-01T15:00:50;101253.41;;;18.12;36.72
79527;BME280;68974;47.754;-3.364;2023-04-01T15:03:38;101257.41;;;18.59;36.25
79527;BME280;68974;47.754;-3.364;2023-04-01T15:11:52;101271.84;;;15.78;45.67
79527;BME280;68974;47.754;-3.364;2023-04-01T15:22:17;101278.16;;;18.62;39.04
79527;BME280;68974;47.754;-3.364;2023-04-01T15:25:02;101279.19;;;18.66;38.23
79527;BME280;68974;47.754;-3.364;2023-04-01T15:27:33;101266.44;;;18.74;38.40
79527;BME280;68974;47.754;-3.364;2023-04-01T15:30:33;101285.16;;;17.67;39.95
79527;BME280;68974;47.754;-3.364;2023-04-01T15:36:07;101273.31;;;17.39;41.11
79527;BME280;68974;47.754;-3.364;2023-04-01T15:41:27;101274.00;;;18.11;39.68
79527;BME280;68974;47.754;-3.364;2023-04-01T15:44:01;101289.94;;;17.97;39.64
79527;BME280;68974;47.754;-3.364;2023-04-01T15:46:41;101285.22;;;17.98;39.98
79527;BME280;68974;47.754;-3.364;2023-04-01T15:52:35;101288.63;;;16.60;43.77
79527;BME280;68974;47.754;-3.364;2023-04-01T15:58:06;101304.94;;;15.13;47.82
79527;BME280;68974;47.754;-3.364;2023-04-01T16:00:44;101305.22;;;14.69;49.28
79527;BME280;68974;47.754;-3.364;2023-04-01T16:03:37;101315.28;;;14.84;49.31
79527;BME280;68974;47.754;-3.364;2023-04-01T16:11:42;101318.06;;;14.60;49.88
79527;BME280;68974;47.754;-3.364;2023-04-01T16:17:16;101329.72;;;14.23;50.52
79527;BME280;68974;47.754;-3.364;2023-04-01T16:19:51;101324.28;;;14.13;51.63
79527;BME280;68974;47.754;-3.364;2023-04-01T16:25:40;101325.81;;;14.00;53.46
79527;BME280;68974;47.754;-3.364;2023-04-01T16:30:47;101339.56;;;13.71;54.12
79527;BME280;68974;47.754;-3.364;2023-04-01T16:33:28;101341.84;;;13.59;54.67
79527;BME280;68974;47.754;-3.364;2023-04-01T16:41:49;101349.09;;;13.50;54.94
79527;BME280;68974;47.754;-3.364;2023-04-01T16:44:22;101354.31;;;13.57;55.73
79527;BME280;68974;47.754;-3.364;2023-04-01T16:49:53;101367.31;;;13.51;56.55
79527;BME280;68974;47.754;-3.364;2023-04-01T16:58:01;101391.94;;;12.48;65.22
79527;BME280;68974;47.754;-3.364;2023-04-01T17:00:40;101390.59;;;12.40;64.67
79527;BME280;68974;47.754;-3.364;2023-04-01T17:03:25;101395.25;;;12.50;64.43
79527;BME280;68974;47.754;-3.364;2023-04-01T17:08:30;101409.03;;;12.40;65.54
79527;BME280;68974;47.754;-3.364;2023-04-01T17:13:49;101404.06;;;12.32;64.75
79527;BME280;68974;47.754;-3.364;2023-04-01T17:52:41;101460.81;;;12.07;65.72
79527;BME280;68974;47.754;-3.364;2023-04-01T18:10:13;101487.22;;;11.98;66.54
79527;BME280;68974;47.754;-3.364;2023-04-01T18:15:10;101502.09;;;11.87;68.15
79527;BME280;68974;47.754;-3.364;2023-04-01T18:21:10;101521.84;;;11.74;68.47
79527;BME280;68974;47.754;-3.364;2023-04-01T18:23:47;101527.03;;;11.70;68.73
79527;BME280;68974;47.754;-3.364;2023-04-01T18:26:20;101541.16;;;11.84;68.55
79527;BME280;68974;47.754;-3.364;2023-04-01T18:28:56;101542.25;;;11.88;68.19
79527;BME280;68974;47.754;-3.364;2023-04-01T18:31:25;101544.47;;;11.81;69.03
79527;BME280;68974;47.754;-3.364;2023-04-01T18:34:06;101547.44;;;11.75;69.92
79527;BME280;68974;47.754;-3.364;2023-04-01T18:39:25;101557.16;;;11.87;69.66
79527;BME280;68974;47.754;-3.364;2023-04-01T18:50:21;101575.03;;;11.85;71.32
79527;BME280;68974;47.754;-3.364;2023-04-01T18:52:52;101580.56;;;11.95;71.54
79527;BME280;68974;47.754;-3.364;2023-04-01T18:55:32;101592.91;;;11.82;72.78
79527;BME280;68974;47.754;-3.364;2023-04-01T18:58:24;101594.19;;;11.69;73.37
79527;BME280;68974;47.754;-3.364;2023-04-01T19:01:11;101598.31;;;11.67;73.15
79527;BME280;68974;47.754;-3.364;2023-04-01T19:03:43;101589.00;;;11.73;72.89
79527;BME280;68974;47.754;-3.364;2023-04-01T19:08:52;101602.66;;;11.58;72.11
79527;BME280;68974;47.754;-3.364;2023-04-01T19:11:38;101600.59;;;11.33;72.99
79527;BME280;68974;47.754;-3.364;2023-04-01T19:16:58;101599.09;;;11.15;71.87
79527;BME280;68974;47.754;-3.364;2023-04-01T19:19:51;101615.41;;;10.95;72.92
79527;BME280;68974;47.754;-3.364;2023-04-01T19:22:40;101627.63;;;11.09;72.56
79527;BME280;68974;47.754;-3.364;2023-04-01T19:30:57;101626.28;;;11.12;72.66
79527;BME280;68974;47.754;-3.364;2023-04-01T19:34:02;101630.44;;;11.19;72.82
79527;BME280;68974;47.754;-3.364;2023-04-01T19:45:14;101651.81;;;11.07;73.57
79527;BME280;68974;47.754;-3.364;2023-04-01T19:50:25;101649.94;;;11.13;73.26
79527;BME280;68974;47.754;-3.364;2023-04-01T19:52:56;101648.06;;;11.18;73.63
79527;BME280;68974;47.754;-3.364;2023-04-01T19:55:55;101657.19;;;10.92;74.72
79527;BME280;68974;47.754;-3.364;2023-04-01T19:58:34;101664.69;;;11.02;74.34
79527;BME280;68974;47.754;-3.364;2023-04-01T20:01:09;101671.69;;;11.19;73.76
79527;BME280;68974;47.754;-3.364;2023-04-01T20:03:51;101673.59;;;11.14;74.40
79527;BME280;68974;47.754;-3.364;2023-04-01T20:06:35;101678.31;;;11.18;75.35
79527;BME280;68974;47.754;-3.364;2023-04-01T20:15:03;101707.50;;;11.24;75.84
79527;BME280;68974;47.754;-3.364;2023-04-01T20:17:41;101705.72;;;11.08;76.26
79527;BME280;68974;47.754;-3.364;2023-04-01T20:27:57;101718.53;;;10.71;77.87
79527;BME280;68974;47.754;-3.364;2023-04-01T20:46:50;101748.81;;;10.76;77.19
79527;BME280;68974;47.754;-3.364;2023-04-01T20:52:01;101748.19;;;10.69;77.04
79527;BME280;68974;47.754;-3.364;2023-04-01T21:00:31;101770.06;;;10.59;77.07
79527;BME280;68974;47.754;-3.364;2023-04-01T21:03:12;101769.16;;;10.53;77.58
79527;BME280;68974;47.754;-3.364;2023-04-01T21:21:46;101801.69;;;10.39;77.51
79527;BME280;68974;47.754;-3.364;2023-04-01T21:24:48;101810.06;;;10.50;76.98
79527;BME280;68974;47.754;-3.364;2023-04-01T21:33:01;101834.38;;;10.41;76.95
79527;BME280;68974;47.754;-3.364;2023-04-01T21:38:45;101824.22;;;10.41;76.67
79527;BME280;68974;47.754;-3.364;2023-04-01T21:44:26;101833.56;;;10.40;76.38
79527;BME280;68974;47.754;-3.364;2023-04-01T22:03:59;101861.94;;;10.68;75.52
79527;BME280;68974;47.754;-3.364;2023-04-01T22:06:42;101869.59;;;10.66;75.64
79527;BME280;68974;47.754;-3.364;2023-04-01T22:12:00;101882.91;;;10.74;75.50
79527;BME280;68974;47.754;-3.364;2023-04-01T22:25:56;101901.19;;;11.07;73.94
79527;BME280;68974;47.754;-3.364;2023-04-01T22:28:32;101909.31;;;10.97;74.29
79527;BME280;68974;47.754;-3.364;2023-04-01T22:31:03;101907.59;;;11.12;73.13
79527;BME280;68974;47.754;-3.364;2023-04-01T22:47:16;101931.31;;;10.75;73.39
79527;BME280;68974;47.754;-3.364;2023-04-01T22:49:55;101942.34;;;10.80;73.37
79527;BME280;68974;47.754;-3.364;2023-04-01T22:52:32;101942.22;;;10.70;72.94
79527;BME280;68974;47.754;-3.364;2023-04-01T22:55:29;101946.19;;;10.79;72.53
79527;BME280;68974;47.754;-3.364;2023-04-01T22:58:13;101939.72;;;10.68;72.54
79527;BME280;68974;47.754;-3.364;2023-04-01T23:00:43;101950.41;;;10.65;72.66
79527;BME280;68974;47.754;-3.364;2023-04-01T23:03:38;101945.91;;;10.59;72.57
79527;BME280;68974;47.754;-3.364;2023-04-01T23:06:06;101968.13;;;10.57;72.64
79527;BME280;68974;47.754;-3.364;2023-04-01T23:11:06;101967.88;;;10.59;72.61
79527;BME280;68974;47.754;-3.364;2023-04-01T23:13:36;101965.22;;;10.64;72.47
79527;BME280;68974;47.754;-3.364;2023-04-01T23:16:04;101967.69;;;10.65;72.78
79527;BME280;68974;47.754;-3.364;2023-04-01T23:18:57;101968.50;;;10.82;71.72
79527;BME280;68974;47.754;-3.364;2023-04-01T23:21:51;101986.88;;;10.60;72.78
79527;BME280;68974;47.754;-3.364;2023-04-01T23:27:50;101981.19;;;10.67;72.17
79527;BME280;68974;47.754;-3.364;2023-04-01T23:36:00;101990.69;;;10.42;73.28
79527;BME280;68974;47.754;-3.364;2023-04-01T23:38:36;101996.03;;;10.49;73.20
79527;BME280;68974;47.754;-3.364;2023-04-01T23:41:03;101993.00;;;10.51;72.99
79527;BME280;68974;47.754;-3.364;2023-04-01T23:43:31;101990.69;;;10.42;73.29
79527;BME280;68974;47.754;-3.364;2023-04-01T23:46:00;101991.69;;;10.53;73.31
79527;BME280;68974;47.754;-3.364;2023-04-01T23:48:40;101988.53;;;10.45;73.46
79527;BME280;68974;47.754;-3.364;2023-04-01T23:51:25;102000.19;;;10.52;73.74